sensor_id;sensor_type;location;lat;lon;timestamp;P1;durP1;ratioP1;P2;durP2;ratioP2
5961;SDS011;3007;50.770;0.250;2024-01-07T00:01:07;3.53;;;1.70;;
5961;SDS011;3007;50.770;0.250;2024-01-07T00:03:35;5.93;;;1.90;;
5961;SDS011;3007;50.770;0.250;2024-01-07T00:06:05;4.37;;;1.70;;
5961;SDS011;3007;50.770;0.250;2024-01-07T00:08:32;3.13;;;1.70;;
5961;SDS011;3007;50.770;0.250;2024-01-07T00:10:59;3.57;;;1.50;;
5961;SDS011;3007;50.770;0.250;2024-01-07T00:13:25;5.00;;;2.03;;
5961;SDS011;3007;50.770;0.250;2024-01-07T00:15:52;3.63;;;1.80;;
5961;SDS011;3007;50.770;0.250;2024-01-07T00:18:20;5.33;;;1.50;;
5961;SDS011;3007;50.770;0.250;2024-01-07T00:20:49;4.30;;;1.97;;
5961;SDS011;3007;50.770;0.250;2024-01-07T00:23:17;7.17;;;1.77;;
5961;SDS011;3007;50.770;0.250;2024-01-07T00:25:45;5.87;;;2.13;;
5961;SDS011;3007;50.770;0.250;2024-01-07T00:28:12;4.47;;;1.83;;
5961;SDS011;3007;50.770;0.250;2024-01-07T00:30:39;11.27;;;2.53;;
5961;SDS011;3007;50.770;0.250;2024-01-07T00:33:05;5.13;;;1.83;;
5961;SDS011;3007;50.770;0.250;2024-01-07T00:35:32;4.50;;;1.50;;
5961;SDS011;3007;50.770;0.250;2024-01-07T00:37:59;5.93;;;2.00;;
5961;SDS011;3007;50.770;0.250;2024-01-07T00:40:27;7.63;;;2.00;;
5961;SDS011;3007;50.770;0.250;2024-01-07T00:42:54;4.50;;;2.07;;
5961;SDS011;3007;50.770;0.250;2024-01-07T00:45:21;3.80;;;1.83;;
5961;SDS011;3007;50.770;0.250;2024-01-07T00:47:48;6.97;;;1.97;;
5961;SDS011;3007;50.770;0.250;2024-01-07T00:50:14;5.57;;;2.10;;
5961;SDS011;3007;50.770;0.250;2024-01-07T00:52:40;3.90;;;2.00;;
5961;SDS011;3007;50.770;0.250;2024-01-07T00:55:08;7.67;;;2.10;;
5961;SDS011;3007;50.770;0.250;2024-01-07T00:57:36;3.87;;;2.00;;
5961;SDS011;3007;50.770;0.250;2024-01-07T01:00:04;6.70;;;2.17;;
5961;SDS011;3007;50.770;0.250;2024-01-07T01:02:32;7.43;;;2.27;;
5961;SDS011;3007;50.770;0.250;2024-01-07T01:05:01;6.60;;;2.13;;
5961;SDS011;3007;50.770;0.250;2024-01-07T01:07:27;7.47;;;1.93;;
5961;SDS011;3007;50.770;0.250;2024-01-07T01:09:54;5.47;;;2.23;;
5961;SDS011;3007;50.770;0.250;2024-01-07T01:12:21;7.70;;;2.03;;
5961;SDS011;3007;50.770;0.250;2024-01-07T01:14:49;4.73;;;1.73;;
5961;SDS011;3007;50.770;0.250;2024-01-07T01:17:16;6.33;;;1.73;;
5961;SDS011;3007;50.770;0.250;2024-01-07T01:19:43;5.87;;;2.10;;
5961;SDS011;3007;50.770;0.250;2024-01-07T01:22:10;4.67;;;1.77;;
5961;SDS011;3007;50.770;0.250;2024-01-07T01:24:37;4.37;;;1.93;;
5961;SDS011;3007;50.770;0.250;2024-01-07T01:27:04;6.77;;;2.00;;
5961;SDS011;3007;50.770;0.250;2024-01-07T01:29:31;4.73;;;1.80;;
5961;SDS011;3007;50.770;0.250;2024-01-07T01:31:59;5.50;;;1.80;;
5961;SDS011;3007;50.770;0.250;2024-01-07T01:34:26;7.07;;;2.07;;
5961;SDS011;3007;50.770;0.250;2024-01-07T01:36:55;5.13;;;1.90;;
5961;SDS011;3007;50.770;0.250;2024-01-07T01:39:30;3.87;;;1.67;;
5961;SDS011;3007;50.770;0.250;2024-01-07T01:41:57;8.47;;;2.47;;
5961;SDS011;3007;50.770;0.250;2024-01-07T01:44:24;8.60;;;2.00;;
5961;SDS011;3007;50.770;0.250;2024-01-07T01:46:52;3.83;;;2.00;;
5961;SDS011;3007;50.770;0.250;2024-01-07T01:49:21;5.40;;;2.17;;
5961;SDS011;3007;50.770;0.250;2024-01-07T01:51:48;5.20;;;2.23;;
5961;SDS011;3007;50.770;0.250;2024-01-07T01:54:15;4.20;;;1.70;;
5961;SDS011;3007;50.770;0.250;2024-01-07T01:56:42;3.47;;;1.50;;
5961;SDS011;3007;50.770;0.250;2024-01-07T01:59:09;8.80;;;2.40;;
5961;SDS011;3007;50.770;0.250;2024-01-07T02:01:37;5.93;;;2.17;;
5961;SDS011;3007;50.770;0.250;2024-01-07T02:04:08;4.87;;;1.80;;
5961;SDS011;3007;50.770;0.250;2024-01-07T02:06:37;5.83;;;2.10;;
5961;SDS011;3007;50.770;0.250;2024-01-07T02:09:04;4.23;;;2.00;;
5961;SDS011;3007;50.770;0.250;2024-01-07T02:11:31;5.30;;;2.00;;
5961;SDS011;3007;50.770;0.250;2024-01-07T02:13:57;5.13;;;1.90;;
5961;SDS011;3007;50.770;0.250;2024-01-07T02:16:24;5.90;;;2.03;;
5961;SDS011;3007;50.770;0.250;2024-01-07T02:18:51;6.27;;;1.67;;
5961;SDS011;3007;50.770;0.250;2024-01-07T02:21:18;7.03;;;2.37;;
5961;SDS011;3007;50.770;0.250;2024-01-07T02:23:46;10.10;;;1.90;;
5961;SDS011;3007;50.770;0.250;2024-01-07T02:26:14;8.03;;;2.23;;
5961;SDS011;3007;50.770;0.250;2024-01-07T02:28:41;4.40;;;2.00;;
5961;SDS011;3007;50.770;0.250;2024-01-07T02:31:08;7.27;;;1.90;;
5961;SDS011;3007;50.770;0.250;2024-01-07T02:33:35;5.33;;;2.07;;
5961;SDS011;3007;50.770;0.250;2024-01-07T02:36:02;4.00;;;2.33;;
5961;SDS011;3007;50.770;0.250;2024-01-07T02:38:29;4.67;;;2.17;;
5961;SDS011;3007;50.770;0.250;2024-01-07T02:40:55;6.90;;;2.07;;
5961;SDS011;3007;50.770;0.250;2024-01-07T02:43:24;5.10;;;1.67;;
5961;SDS011;3007;50.770;0.250;2024-01-07T02:45:50;6.33;;;1.97;;
5961;SDS011;3007;50.770;0.250;2024-01-07T02:48:17;6.90;;;2.27;;
5961;SDS011;3007;50.770;0.250;2024-01-07T02:50:44;4.40;;;2.10;;
5961;SDS011;3007;50.770;0.250;2024-01-07T02:53:11;7.13;;;2.50;;
5961;SDS011;3007;50.770;0.250;2024-01-07T02:55:38;5.87;;;1.63;;
5961;SDS011;3007;50.770;0.250;2024-01-07T02:58:04;5.93;;;1.80;;
5961;SDS011;3007;50.770;0.250;2024-01-07T03:00:32;3.33;;;1.90;;
5961;SDS011;3007;50.770;0.250;2024-01-07T03:02:59;8.17;;;2.67;;
5961;SDS011;3007;50.770;0.250;2024-01-07T03:05:26;6.10;;;2.00;;
5961;SDS011;3007;50.770;0.250;2024-01-07T03:07:57;4.73;;;2.03;;
5961;SDS011;3007;50.770;0.250;2024-01-07T03:10:24;4.27;;;2.00;;
5961;SDS011;3007;50.770;0.250;2024-01-07T03:12:51;13.10;;;2.23;;
5961;SDS011;3007;50.770;0.250;2024-01-07T03:15:17;7.03;;;1.80;;
5961;SDS011;3007;50.770;0.250;2024-01-07T03:17:46;6.53;;;1.70;;
5961;SDS011;3007;50.770;0.250;2024-01-07T03:20:12;9.83;;;2.10;;
5961;SDS011;3007;50.770;0.250;2024-01-07T03:22:39;6.83;;;1.80;;
5961;SDS011;3007;50.770;0.250;2024-01-07T03:25:07;8.53;;;2.20;;
5961;SDS011;3007;50.770;0.250;2024-01-07T03:27:34;6.87;;;1.50;;
5961;SDS011;3007;50.770;0.250;2024-01-07T03:30:01;4.57;;;1.73;;
5961;SDS011;3007;50.770;0.250;2024-01-07T03:32:27;4.93;;;1.80;;
5961;SDS011;3007;50.770;0.250;2024-01-07T03:34:56;4.73;;;1.73;;
5961;SDS011;3007;50.770;0.250;2024-01-07T03:37:22;6.50;;;1.80;;
5961;SDS011;3007;50.770;0.250;2024-01-07T03:39:49;7.23;;;1.60;;
5961;SDS011;3007;50.770;0.250;2024-01-07T03:42:16;5.30;;;2.00;;
5961;SDS011;3007;50.770;0.250;2024-01-07T03:44:43;5.33;;;1.70;;
5961;SDS011;3007;50.770;0.250;2024-01-07T03:47:10;7.53;;;1.70;;
5961;SDS011;3007;50.770;0.250;2024-01-07T03:49:36;5.30;;;1.53;;
5961;SDS011;3007;50.770;0.250;2024-01-07T03:52:05;5.17;;;1.70;;
5961;SDS011;3007;50.770;0.250;2024-01-07T03:54:32;5.50;;;1.47;;
5961;SDS011;3007;50.770;0.250;2024-01-07T03:56:59;3.87;;;1.50;;
5961;SDS011;3007;50.770;0.250;2024-01-07T03:59:26;4.93;;;1.80;;
5961;SDS011;3007;50.770;0.250;2024-01-07T04:01:53;7.27;;;1.80;;
5961;SDS011;3007;50.770;0.250;2024-01-07T04:04:22;8.30;;;1.43;;
5961;SDS011;3007;50.770;0.250;2024-01-07T04:06:49;7.33;;;1.90;;
5961;SDS011;3007;50.770;0.250;2024-01-07T04:09:17;3.40;;;1.40;;
5961;SDS011;3007;50.770;0.250;2024-01-07T04:11:44;6.17;;;1.70;;
5961;SDS011;3007;50.770;0.250;2024-01-07T04:14:13;6.23;;;1.40;;
5961;SDS011;3007;50.770;0.250;2024-01-07T04:16:40;4.67;;;1.60;;
5961;SDS011;3007;50.770;0.250;2024-01-07T04:19:07;5.73;;;1.73;;
5961;SDS011;3007;50.770;0.250;2024-01-07T04:21:34;5.20;;;1.77;;
5961;SDS011;3007;50.770;0.250;2024-01-07T04:24:01;10.60;;;2.33;;
5961;SDS011;3007;50.770;0.250;2024-01-07T04:26:29;4.70;;;1.40;;
5961;SDS011;3007;50.770;0.250;2024-01-07T04:28:56;7.33;;;1.77;;
5961;SDS011;3007;50.770;0.250;2024-01-07T04:31:23;3.33;;;1.60;;
5961;SDS011;3007;50.770;0.250;2024-01-07T04:33:49;7.10;;;1.60;;
5961;SDS011;3007;50.770;0.250;2024-01-07T04:36:16;5.30;;;1.20;;
5961;SDS011;3007;50.770;0.250;2024-01-07T04:38:43;7.90;;;1.40;;
5961;SDS011;3007;50.770;0.250;2024-01-07T04:41:10;4.33;;;1.33;;
5961;SDS011;3007;50.770;0.250;2024-01-07T04:43:38;5.97;;;1.70;;
5961;SDS011;3007;50.770;0.250;2024-01-07T04:46:05;5.57;;;1.60;;
5961;SDS011;3007;50.770;0.250;2024-01-07T04:48:32;4.97;;;1.27;;
5961;SDS011;3007;50.770;0.250;2024-01-07T04:50:59;3.73;;;1.20;;
5961;SDS011;3007;50.770;0.250;2024-01-07T04:53:25;3.33;;;1.03;;
5961;SDS011;3007;50.770;0.250;2024-01-07T04:55:52;4.07;;;1.70;;
5961;SDS011;3007;50.770;0.250;2024-01-07T04:58:19;5.17;;;1.33;;
5961;SDS011;3007;50.770;0.250;2024-01-07T05:00:47;2.67;;;1.13;;
5961;SDS011;3007;50.770;0.250;2024-01-07T05:03:14;5.17;;;1.30;;
5961;SDS011;3007;50.770;0.250;2024-01-07T05:05:41;7.00;;;1.57;;
5961;SDS011;3007;50.770;0.250;2024-01-07T05:08:08;4.80;;;1.50;;
5961;SDS011;3007;50.770;0.250;2024-01-07T05:10:35;4.17;;;1.13;;
5961;SDS011;3007;50.770;0.250;2024-01-07T05:13:01;3.33;;;1.30;;
5961;SDS011;3007;50.770;0.250;2024-01-07T05:15:31;6.40;;;1.30;;
5961;SDS011;3007;50.770;0.250;2024-01-07T05:18:00;3.37;;;1.40;;
5961;SDS011;3007;50.770;0.250;2024-01-07T05:20:27;4.83;;;1.17;;
5961;SDS011;3007;50.770;0.250;2024-01-07T05:22:54;4.97;;;1.43;;
5961;SDS011;3007;50.770;0.250;2024-01-07T05:25:21;3.33;;;1.10;;
5961;SDS011;3007;50.770;0.250;2024-01-07T05:27:47;3.80;;;1.50;;
5961;SDS011;3007;50.770;0.250;2024-01-07T05:30:14;4.77;;;1.40;;
5961;SDS011;3007;50.770;0.250;2024-01-07T05:32:41;5.93;;;1.70;;
5961;SDS011;3007;50.770;0.250;2024-01-07T05:35:09;3.17;;;1.30;;
5961;SDS011;3007;50.770;0.250;2024-01-07T05:37:36;3.90;;;1.27;;
5961;SDS011;3007;50.770;0.250;2024-01-07T05:40:03;3.83;;;1.30;;
5961;SDS011;3007;50.770;0.250;2024-01-07T05:42:31;3.23;;;1.30;;
5961;SDS011;3007;50.770;0.250;2024-01-07T05:44:58;5.20;;;1.70;;
5961;SDS011;3007;50.770;0.250;2024-01-07T05:47:24;4.50;;;1.10;;
5961;SDS011;3007;50.770;0.250;2024-01-07T05:49:51;7.73;;;1.80;;
5961;SDS011;3007;50.770;0.250;2024-01-07T05:52:19;7.57;;;1.87;;
5961;SDS011;3007;50.770;0.250;2024-01-07T05:54:46;3.73;;;1.20;;
5961;SDS011;3007;50.770;0.250;2024-01-07T05:57:14;3.90;;;1.20;;
5961;SDS011;3007;50.770;0.250;2024-01-07T05:59:41;3.93;;;1.37;;
5961;SDS011;3007;50.770;0.250;2024-01-07T06:02:09;5.03;;;1.30;;
5961;SDS011;3007;50.770;0.250;2024-01-07T06:04:36;6.97;;;1.30;;
5961;SDS011;3007;50.770;0.250;2024-01-07T06:07:03;7.87;;;2.07;;
5961;SDS011;3007;50.770;0.250;2024-01-07T06:09:35;4.53;;;1.60;;
5961;SDS011;3007;50.770;0.250;2024-01-07T06:12:17;5.60;;;1.60;;
5961;SDS011;3007;50.770;0.250;2024-01-07T06:14:46;3.53;;;1.13;;
5961;SDS011;3007;50.770;0.250;2024-01-07T06:17:14;4.37;;;1.33;;
5961;SDS011;3007;50.770;0.250;2024-01-07T06:19:46;4.27;;;1.30;;
5961;SDS011;3007;50.770;0.250;2024-01-07T06:22:14;3.30;;;1.27;;
5961;SDS011;3007;50.770;0.250;2024-01-07T06:24:48;6.67;;;1.70;;
5961;SDS011;3007;50.770;0.250;2024-01-07T06:27:18;5.77;;;1.33;;
5961;SDS011;3007;50.770;0.250;2024-01-07T06:29:49;5.07;;;1.23;;
5961;SDS011;3007;50.770;0.250;2024-01-07T06:32:23;7.83;;;1.30;;
5961;SDS011;3007;50.770;0.250;2024-01-07T06:34:52;3.50;;;1.37;;
5961;SDS011;3007;50.770;0.250;2024-01-07T06:37:24;3.90;;;1.47;;
5961;SDS011;3007;50.770;0.250;2024-01-07T06:39:59;6.27;;;1.50;;
5961;SDS011;3007;50.770;0.250;2024-01-07T06:42:28;6.20;;;1.53;;
5961;SDS011;3007;50.770;0.250;2024-01-07T06:44:59;3.37;;;1.40;;
5961;SDS011;3007;50.770;0.250;2024-01-07T06:47:25;11.83;;;1.90;;
5961;SDS011;3007;50.770;0.250;2024-01-07T06:49:52;2.17;;;1.30;;
5961;SDS011;3007;50.770;0.250;2024-01-07T06:52:19;3.50;;;1.53;;
5961;SDS011;3007;50.770;0.250;2024-01-07T06:54:46;3.43;;;1.43;;
5961;SDS011;3007;50.770;0.250;2024-01-07T06:57:14;4.53;;;1.40;;
5961;SDS011;3007;50.770;0.250;2024-01-07T06:59:41;3.60;;;1.40;;
5961;SDS011;3007;50.770;0.250;2024-01-07T07:02:07;6.47;;;1.40;;
5961;SDS011;3007;50.770;0.250;2024-01-07T07:04:41;6.03;;;1.53;;
5961;SDS011;3007;50.770;0.250;2024-01-07T07:07:10;3.23;;;1.47;;
5961;SDS011;3007;50.770;0.250;2024-01-07T07:09:44;4.47;;;1.60;;
5961;SDS011;3007;50.770;0.250;2024-01-07T07:12:13;2.77;;;1.30;;
5961;SDS011;3007;50.770;0.250;2024-01-07T07:14:47;4.33;;;1.40;;
5961;SDS011;3007;50.770;0.250;2024-01-07T07:17:19;2.97;;;1.57;;
5961;SDS011;3007;50.770;0.250;2024-01-07T07:19:58;4.50;;;1.27;;
5961;SDS011;3007;50.770;0.250;2024-01-07T07:22:26;4.73;;;1.37;;
5961;SDS011;3007;50.770;0.250;2024-01-07T07:24:54;5.33;;;1.50;;
5961;SDS011;3007;50.770;0.250;2024-01-07T07:27:26;9.13;;;1.67;;
5961;SDS011;3007;50.770;0.250;2024-01-07T07:29:54;3.77;;;1.17;;
5961;SDS011;3007;50.770;0.250;2024-01-07T07:32:21;5.20;;;1.60;;
5961;SDS011;3007;50.770;0.250;2024-01-07T07:34:48;3.90;;;1.57;;
5961;SDS011;3007;50.770;0.250;2024-01-07T07:37:15;2.50;;;1.40;;
5961;SDS011;3007;50.770;0.250;2024-01-07T07:39:42;2.70;;;1.20;;
5961;SDS011;3007;50.770;0.250;2024-01-07T07:42:09;3.03;;;1.20;;
5961;SDS011;3007;50.770;0.250;2024-01-07T07:44:37;3.70;;;1.20;;
5961;SDS011;3007;50.770;0.250;2024-01-07T07:47:05;7.17;;;1.27;;
5961;SDS011;3007;50.770;0.250;2024-01-07T07:49:32;1.70;;;1.20;;
5961;SDS011;3007;50.770;0.250;2024-01-07T07:52:00;4.17;;;1.70;;
5961;SDS011;3007;50.770;0.250;2024-01-07T07:54:27;4.67;;;1.20;;
5961;SDS011;3007;50.770;0.250;2024-01-07T07:56:54;3.83;;;1.37;;
5961;SDS011;3007;50.770;0.250;2024-01-07T07:59:21;6.20;;;1.33;;
5961;SDS011;3007;50.770;0.250;2024-01-07T08:01:49;4.40;;;1.20;;
5961;SDS011;3007;50.770;0.250;2024-01-07T08:04:16;3.70;;;1.40;;
5961;SDS011;3007;50.770;0.250;2024-01-07T08:06:43;7.37;;;1.30;;
5961;SDS011;3007;50.770;0.250;2024-01-07T08:09:10;4.73;;;1.30;;
5961;SDS011;3007;50.770;0.250;2024-01-07T08:11:37;3.60;;;1.27;;
5961;SDS011;3007;50.770;0.250;2024-01-07T08:14:04;3.73;;;1.30;;
5961;SDS011;3007;50.770;0.250;2024-01-07T08:16:31;1.40;;;1.00;;
5961;SDS011;3007;50.770;0.250;2024-01-07T08:18:59;4.53;;;1.17;;
5961;SDS011;3007;50.770;0.250;2024-01-07T08:21:26;4.03;;;1.50;;
5961;SDS011;3007;50.770;0.250;2024-01-07T08:23:52;4.93;;;1.47;;
5961;SDS011;3007;50.770;0.250;2024-01-07T08:26:19;3.70;;;1.37;;
5961;SDS011;3007;50.770;0.250;2024-01-07T08:28:46;5.30;;;1.40;;
5961;SDS011;3007;50.770;0.250;2024-01-07T08:31:13;4.95;;;1.60;;
5961;SDS011;3007;50.770;0.250;2024-01-07T08:33:40;3.27;;;1.40;;
5961;SDS011;3007;50.770;0.250;2024-01-07T08:36:08;7.00;;;3.37;;
5961;SDS011;3007;50.770;0.250;2024-01-07T08:38:35;4.43;;;1.40;;
5961;SDS011;3007;50.770;0.250;2024-01-07T08:41:02;7.30;;;1.10;;
5961;SDS011;3007;50.770;0.250;2024-01-07T08:43:29;4.67;;;1.60;;
5961;SDS011;3007;50.770;0.250;2024-01-07T08:45:56;3.63;;;1.27;;
5961;SDS011;3007;50.770;0.250;2024-01-07T08:48:23;2.80;;;1.20;;
5961;SDS011;3007;50.770;0.250;2024-01-07T08:50:50;4.80;;;1.30;;
5961;SDS011;3007;50.770;0.250;2024-01-07T08:53:18;3.53;;;1.30;;
5961;SDS011;3007;50.770;0.250;2024-01-07T08:55:47;5.37;;;1.13;;
5961;SDS011;3007;50.770;0.250;2024-01-07T08:58:14;4.83;;;1.30;;
5961;SDS011;3007;50.770;0.250;2024-01-07T09:00:42;4.17;;;1.20;;
5961;SDS011;3007;50.770;0.250;2024-01-07T09:03:08;6.33;;;1.43;;
5961;SDS011;3007;50.770;0.250;2024-01-07T09:05:35;2.13;;;1.10;;
5961;SDS011;3007;50.770;0.250;2024-01-07T09:08:02;4.30;;;1.53;;
5961;SDS011;3007;50.770;0.250;2024-01-07T09:10:32;5.00;;;1.10;;
5961;SDS011;3007;50.770;0.250;2024-01-07T09:12:59;3.80;;;1.20;;
5961;SDS011;3007;50.770;0.250;2024-01-07T09:15:26;5.50;;;1.57;;
5961;SDS011;3007;50.770;0.250;2024-01-07T09:17:53;5.00;;;1.50;;
5961;SDS011;3007;50.770;0.250;2024-01-07T09:20:20;7.67;;;1.70;;
5961;SDS011;3007;50.770;0.250;2024-01-07T09:22:47;3.20;;;1.60;;
5961;SDS011;3007;50.770;0.250;2024-01-07T09:25:14;3.30;;;1.30;;
5961;SDS011;3007;50.770;0.250;2024-01-07T09:27:42;4.40;;;1.90;;
5961;SDS011;3007;50.770;0.250;2024-01-07T09:30:10;1.93;;;1.17;;
5961;SDS011;3007;50.770;0.250;2024-01-07T09:32:39;6.47;;;1.67;;
5961;SDS011;3007;50.770;0.250;2024-01-07T09:35:07;3.07;;;1.37;;
5961;SDS011;3007;50.770;0.250;2024-01-07T09:37:34;7.50;;;1.37;;
5961;SDS011;3007;50.770;0.250;2024-01-07T09:40:01;6.30;;;1.60;;
5961;SDS011;3007;50.770;0.250;2024-01-07T09:42:30;5.57;;;1.50;;
5961;SDS011;3007;50.770;0.250;2024-01-07T09:44:58;6.97;;;1.87;;
5961;SDS011;3007;50.770;0.250;2024-01-07T09:47:28;3.50;;;1.30;;
5961;SDS011;3007;50.770;0.250;2024-01-07T09:49:55;3.63;;;1.63;;
5961;SDS011;3007;50.770;0.250;2024-01-07T09:52:22;6.43;;;1.90;;
5961;SDS011;3007;50.770;0.250;2024-01-07T09:54:51;6.83;;;1.60;;
5961;SDS011;3007;50.770;0.250;2024-01-07T09:57:24;3.53;;;1.20;;
5961;SDS011;3007;50.770;0.250;2024-01-07T09:59:51;4.73;;;1.30;;
5961;SDS011;3007;50.770;0.250;2024-01-07T10:02:20;6.27;;;1.27;;
5961;SDS011;3007;50.770;0.250;2024-01-07T10:04:48;3.00;;;1.10;;
5961;SDS011;3007;50.770;0.250;2024-01-07T10:07:15;7.07;;;1.63;;
5961;SDS011;3007;50.770;0.250;2024-01-07T10:09:42;3.67;;;1.00;;
5961;SDS011;3007;50.770;0.250;2024-01-07T10:12:09;4.67;;;1.50;;
5961;SDS011;3007;50.770;0.250;2024-01-07T10:14:37;4.63;;;1.10;;
5961;SDS011;3007;50.770;0.250;2024-01-07T10:17:13;1.60;;;1.00;;
5961;SDS011;3007;50.770;0.250;2024-01-07T10:19:42;5.17;;;1.37;;
5961;SDS011;3007;50.770;0.250;2024-01-07T10:22:11;4.23;;;1.43;;
5961;SDS011;3007;50.770;0.250;2024-01-07T10:24:39;3.63;;;1.50;;
5961;SDS011;3007;50.770;0.250;2024-01-07T10:27:06;6.30;;;1.57;;
5961;SDS011;3007;50.770;0.250;2024-01-07T10:29:34;3.83;;;1.30;;
5961;SDS011;3007;50.770;0.250;2024-01-07T10:32:01;6.77;;;1.57;;
5961;SDS011;3007;50.770;0.250;2024-01-07T10:34:30;3.80;;;1.40;;
5961;SDS011;3007;50.770;0.250;2024-01-07T10:36:59;5.63;;;1.63;;
5961;SDS011;3007;50.770;0.250;2024-01-07T10:39:27;5.13;;;1.63;;
5961;SDS011;3007;50.770;0.250;2024-01-07T10:41:55;5.33;;;1.60;;
5961;SDS011;3007;50.770;0.250;2024-01-07T10:44:24;6.50;;;1.57;;
5961;SDS011;3007;50.770;0.250;2024-01-07T10:46:53;6.10;;;1.63;;
5961;SDS011;3007;50.770;0.250;2024-01-07T10:49:21;4.27;;;1.40;;
5961;SDS011;3007;50.770;0.250;2024-01-07T10:51:50;4.20;;;1.47;;
5961;SDS011;3007;50.770;0.250;2024-01-07T10:54:29;5.20;;;1.77;;
5961;SDS011;3007;50.770;0.250;2024-01-07T10:56:58;4.07;;;1.47;;
5961;SDS011;3007;50.770;0.250;2024-01-07T10:59:26;4.80;;;1.50;;
5961;SDS011;3007;50.770;0.250;2024-01-07T11:01:54;3.73;;;1.47;;
5961;SDS011;3007;50.770;0.250;2024-01-07T11:04:22;5.20;;;1.67;;
5961;SDS011;3007;50.770;0.250;2024-01-07T11:06:57;8.00;;;1.80;;
5961;SDS011;3007;50.770;0.250;2024-01-07T11:09:33;5.03;;;1.63;;
5961;SDS011;3007;50.770;0.250;2024-01-07T11:12:04;5.53;;;1.77;;
5961;SDS011;3007;50.770;0.250;2024-01-07T11:14:35;5.10;;;1.50;;
5961;SDS011;3007;50.770;0.250;2024-01-07T11:17:04;5.00;;;1.50;;
5961;SDS011;3007;50.770;0.250;2024-01-07T11:19:31;4.93;;;1.27;;
5961;SDS011;3007;50.770;0.250;2024-01-07T11:24:49;6.27;;;1.70;;
5961;SDS011;3007;50.770;0.250;2024-01-07T11:27:16;6.03;;;1.77;;
5961;SDS011;3007;50.770;0.250;2024-01-07T11:29:43;7.53;;;1.73;;
5961;SDS011;3007;50.770;0.250;2024-01-07T11:32:18;6.50;;;1.70;;
5961;SDS011;3007;50.770;0.250;2024-01-07T11:34:47;2.67;;;1.33;;
5961;SDS011;3007;50.770;0.250;2024-01-07T11:37:17;6.80;;;1.90;;
5961;SDS011;3007;50.770;0.250;2024-01-07T11:39:44;4.60;;;1.30;;
5961;SDS011;3007;50.770;0.250;2024-01-07T11:42:13;5.90;;;2.10;;
5961;SDS011;3007;50.770;0.250;2024-01-07T11:44:44;5.47;;;1.63;;
5961;SDS011;3007;50.770;0.250;2024-01-07T11:47:12;7.73;;;1.90;;
5961;SDS011;3007;50.770;0.250;2024-01-07T11:49:39;4.87;;;1.90;;
5961;SDS011;3007;50.770;0.250;2024-01-07T11:52:06;5.67;;;1.90;;
5961;SDS011;3007;50.770;0.250;2024-01-07T11:54:34;4.37;;;1.87;;
5961;SDS011;3007;50.770;0.250;2024-01-07T11:57:01;7.10;;;3.00;;
5961;SDS011;3007;50.770;0.250;2024-01-07T11:59:30;7.37;;;2.00;;
5961;SDS011;3007;50.770;0.250;2024-01-07T12:01:57;10.03;;;2.53;;
5961;SDS011;3007;50.770;0.250;2024-01-07T12:04:25;8.43;;;1.87;;
5961;SDS011;3007;50.770;0.250;2024-01-07T12:06:53;5.70;;;2.07;;
5961;SDS011;3007;50.770;0.250;2024-01-07T12:09:20;3.37;;;1.73;;
5961;SDS011;3007;50.770;0.250;2024-01-07T12:11:47;5.63;;;1.53;;
5961;SDS011;3007;50.770;0.250;2024-01-07T12:14:14;10.13;;;3.20;;
5961;SDS011;3007;50.770;0.250;2024-01-07T12:16:42;3.27;;;1.83;;
5961;SDS011;3007;50.770;0.250;2024-01-07T12:19:09;8.27;;;2.63;;
5961;SDS011;3007;50.770;0.250;2024-01-07T12:21:36;4.93;;;2.27;;
5961;SDS011;3007;50.770;0.250;2024-01-07T12:24:05;9.13;;;2.57;;
5961;SDS011;3007;50.770;0.250;2024-01-07T12:26:35;6.07;;;3.43;;
5961;SDS011;3007;50.770;0.250;2024-01-07T12:29:02;11.67;;;3.77;;
5961;SDS011;3007;50.770;0.250;2024-01-07T12:31:31;5.37;;;3.13;;
5961;SDS011;3007;50.770;0.250;2024-01-07T12:34:03;8.53;;;2.67;;
5961;SDS011;3007;50.770;0.250;2024-01-07T12:36:30;8.90;;;2.13;;
5961;SDS011;3007;50.770;0.250;2024-01-07T12:38:57;7.20;;;2.60;;
5961;SDS011;3007;50.770;0.250;2024-01-07T12:41:25;5.97;;;2.03;;
5961;SDS011;3007;50.770;0.250;2024-01-07T12:43:51;6.47;;;2.70;;
5961;SDS011;3007;50.770;0.250;2024-01-07T12:46:18;5.97;;;2.43;;
5961;SDS011;3007;50.770;0.250;2024-01-07T12:48:45;7.10;;;2.00;;
5961;SDS011;3007;50.770;0.250;2024-01-07T12:51:13;8.37;;;2.17;;
5961;SDS011;3007;50.770;0.250;2024-01-07T12:53:40;7.73;;;1.80;;
5961;SDS011;3007;50.770;0.250;2024-01-07T12:56:07;9.63;;;1.90;;
5961;SDS011;3007;50.770;0.250;2024-01-07T12:58:34;6.60;;;3.13;;
5961;SDS011;3007;50.770;0.250;2024-01-07T13:01:01;5.83;;;1.97;;
5961;SDS011;3007;50.770;0.250;2024-01-07T13:03:28;6.07;;;2.07;;
5961;SDS011;3007;50.770;0.250;2024-01-07T13:05:55;5.03;;;2.33;;
5961;SDS011;3007;50.770;0.250;2024-01-07T13:08:23;4.67;;;2.60;;
5961;SDS011;3007;50.770;0.250;2024-01-07T13:10:52;6.33;;;2.17;;
5961;SDS011;3007;50.770;0.250;2024-01-07T13:13:20;5.27;;;2.70;;
5961;SDS011;3007;50.770;0.250;2024-01-07T13:15:46;7.33;;;2.60;;
5961;SDS011;3007;50.770;0.250;2024-01-07T13:18:15;6.03;;;2.23;;
5961;SDS011;3007;50.770;0.250;2024-01-07T13:20:41;6.93;;;2.57;;
5961;SDS011;3007;50.770;0.250;2024-01-07T13:23:08;7.47;;;3.33;;
5961;SDS011;3007;50.770;0.250;2024-01-07T13:25:36;9.10;;;3.63;;
5961;SDS011;3007;50.770;0.250;2024-01-07T13:28:05;7.47;;;2.83;;
5961;SDS011;3007;50.770;0.250;2024-01-07T13:30:35;5.47;;;1.70;;
5961;SDS011;3007;50.770;0.250;2024-01-07T13:33:03;6.00;;;2.23;;
5961;SDS011;3007;50.770;0.250;2024-01-07T13:35:30;5.67;;;2.50;;
5961;SDS011;3007;50.770;0.250;2024-01-07T13:37:57;5.20;;;2.20;;
5961;SDS011;3007;50.770;0.250;2024-01-07T13:40:24;9.87;;;2.80;;
5961;SDS011;3007;50.770;0.250;2024-01-07T13:42:53;9.13;;;2.30;;
5961;SDS011;3007;50.770;0.250;2024-01-07T13:45:20;3.53;;;1.90;;
5961;SDS011;3007;50.770;0.250;2024-01-07T13:47:48;7.63;;;2.10;;
5961;SDS011;3007;50.770;0.250;2024-01-07T13:50:15;11.70;;;2.43;;
5961;SDS011;3007;50.770;0.250;2024-01-07T13:52:42;5.10;;;2.10;;
5961;SDS011;3007;50.770;0.250;2024-01-07T13:55:09;5.47;;;2.10;;
5961;SDS011;3007;50.770;0.250;2024-01-07T13:57:36;8.70;;;2.17;;
5961;SDS011;3007;50.770;0.250;2024-01-07T14:00:06;5.77;;;2.07;;
5961;SDS011;3007;50.770;0.250;2024-01-07T14:02:34;4.73;;;2.07;;
5961;SDS011;3007;50.770;0.250;2024-01-07T14:05:03;8.20;;;2.07;;
5961;SDS011;3007;50.770;0.250;2024-01-07T14:07:31;5.53;;;2.10;;
5961;SDS011;3007;50.770;0.250;2024-01-07T14:09:59;8.87;;;2.40;;
5961;SDS011;3007;50.770;0.250;2024-01-07T14:12:28;6.73;;;2.10;;
5961;SDS011;3007;50.770;0.250;2024-01-07T14:14:54;4.60;;;2.07;;
5961;SDS011;3007;50.770;0.250;2024-01-07T14:17:23;7.67;;;2.17;;
5961;SDS011;3007;50.770;0.250;2024-01-07T14:19:49;4.97;;;2.13;;
5961;SDS011;3007;50.770;0.250;2024-01-07T14:22:18;3.90;;;2.40;;
5961;SDS011;3007;50.770;0.250;2024-01-07T14:24:45;5.53;;;2.30;;
5961;SDS011;3007;50.770;0.250;2024-01-07T14:27:12;5.87;;;2.17;;
5961;SDS011;3007;50.770;0.250;2024-01-07T14:29:40;8.23;;;2.40;;
5961;SDS011;3007;50.770;0.250;2024-01-07T14:32:06;7.23;;;2.40;;
5961;SDS011;3007;50.770;0.250;2024-01-07T14:34:37;6.57;;;2.83;;
5961;SDS011;3007;50.770;0.250;2024-01-07T14:37:04;7.97;;;2.67;;
5961;SDS011;3007;50.770;0.250;2024-01-07T14:39:31;9.20;;;3.30;;
5961;SDS011;3007;50.770;0.250;2024-01-07T14:41:57;8.33;;;2.37;;
5961;SDS011;3007;50.770;0.250;2024-01-07T14:44:24;5.37;;;2.40;;
5961;SDS011;3007;50.770;0.250;2024-01-07T14:46:51;4.43;;;2.07;;
5961;SDS011;3007;50.770;0.250;2024-01-07T14:49:18;6.53;;;2.10;;
5961;SDS011;3007;50.770;0.250;2024-01-07T14:51:46;4.43;;;1.80;;
5961;SDS011;3007;50.770;0.250;2024-01-07T14:54:13;8.47;;;1.77;;
5961;SDS011;3007;50.770;0.250;2024-01-07T14:56:40;8.13;;;2.67;;
5961;SDS011;3007;50.770;0.250;2024-01-07T14:59:07;11.27;;;3.63;;
5961;SDS011;3007;50.770;0.250;2024-01-07T15:01:34;9.17;;;2.93;;
5961;SDS011;3007;50.770;0.250;2024-01-07T15:04:01;10.90;;;3.17;;
5961;SDS011;3007;50.770;0.250;2024-01-07T15:06:28;7.17;;;2.90;;
5961;SDS011;3007;50.770;0.250;2024-01-07T15:08:56;4.93;;;2.53;;
5961;SDS011;3007;50.770;0.250;2024-01-07T15:11:23;5.30;;;2.70;;
5961;SDS011;3007;50.770;0.250;2024-01-07T15:13:50;6.73;;;2.77;;
5961;SDS011;3007;50.770;0.250;2024-01-07T15:16:18;10.00;;;3.10;;
5961;SDS011;3007;50.770;0.250;2024-01-07T15:18:44;3.97;;;3.17;;
5961;SDS011;3007;50.770;0.250;2024-01-07T15:21:11;6.67;;;2.97;;